sensor_id;sensor_type;location;lat;lon;timestamp;pressure;altitude;pressure_sealevel;temperature;humidity
75996;BME280;64681;49.738;9.004;2024-01-30T00:01:51;100879.94;;;0.39;100.00
75996;BME280;64681;49.738;9.004;2024-01-30T00:04:16;100885.63;;;0.66;98.31
75996;BME280;64681;49.738;9.004;2024-01-30T00:06:46;100886.66;;;0.77;96.97
75996;BME280;64681;49.738;9.004;2024-01-30T00:09:11;100884.13;;;0.70;97.38
75996;BME280;64681;49.738;9.004;2024-01-30T00:11:37;100888.72;;;0.75;97.49
75996;BME280;64681;49.738;9.004;2024-01-30T00:14:04;100888.72;;;0.75;97.28
75996;BME280;64681;49.738;9.004;2024-01-30T00:16:30;100882.00;;;0.91;96.28
75996;BME280;64681;49.738;9.004;2024-01-30T00:18:55;100888.28;;;0.90;95.91
75996;BME280;64681;49.738;9.004;2024-01-30T00:21:21;100888.13;;;0.73;96.00
75996;BME280;64681;49.738;9.004;2024-01-30T00:23:47;100894.69;;;0.82;95.04
75996;BME280;64681;49.738;9.004;2024-01-30T00:26:13;100887.41;;;0.42;96.87
75996;BME280;64681;49.738;9.004;2024-01-30T00:28:41;100888.63;;;0.39;97.93
75996;BME280;64681;49.738;9.004;2024-01-30T00:31:07;100896.19;;;0.47;97.05
75996;BME280;64681;49.738;9.004;2024-01-30T00:33:33;100892.38;;;0.31;99.20
75996;BME280;64681;49.738;9.004;2024-01-30T00:35:58;100882.16;;;0.54;98.36
75996;BME280;64681;49.738;9.004;2024-01-30T00:38:24;100884.69;;;0.60;98.47
75996;BME280;64681;49.738;9.004;2024-01-30T00:40:49;100888.38;;;0.71;98.23
75996;BME280;64681;49.738;9.004;2024-01-30T00:43:16;100893.06;;;0.81;96.84
75996;BME280;64681;49.738;9.004;2024-01-30T00:45:43;100890.00;;;0.84;95.79
75996;BME280;64681;49.738;9.004;2024-01-30T00:48:09;100890.22;;;0.83;95.85
75996;BME280;64681;49.738;9.004;2024-01-30T00:50:35;100891.00;;;0.71;96.41
75996;BME280;64681;49.738;9.004;2024-01-30T00:53:00;100892.94;;;0.76;95.90
75996;BME280;64681;49.738;9.004;2024-01-30T00:55:26;100892.16;;;0.75;95.56
75996;BME280;64681;49.738;9.004;2024-01-30T00:57:51;100890.88;;;0.66;96.19
75996;BME280;64681;49.738;9.004;2024-01-30T01:00:17;100893.72;;;0.53;96.69
75996;BME280;64681;49.738;9.004;2024-01-30T01:02:43;100886.22;;;0.68;96.05
75996;BME280;64681;49.738;9.004;2024-01-30T01:05:10;100889.50;;;0.63;96.11
75996;BME280;64681;49.738;9.004;2024-01-30T01:07:36;100884.69;;;0.60;96.77
75996;BME280;64681;49.738;9.004;2024-01-30T01:10:01;100882.88;;;0.73;96.21
75996;BME280;64681;49.738;9.004;2024-01-30T01:12:28;100891.56;;;0.61;97.17
75996;BME280;64681;49.738;9.004;2024-01-30T01:14:53;100889.97;;;0.72;96.81
75996;BME280;64681;49.738;9.004;2024-01-30T01:17:19;100894.22;;;0.85;95.57
75996;BME280;64681;49.738;9.004;2024-01-30T01:19:44;100886.66;;;0.65;96.42
75996;BME280;64681;49.738;9.004;2024-01-30T01:22:10;100890.41;;;0.57;96.83
75996;BME280;64681;49.738;9.004;2024-01-30T01:24:36;100888.69;;;0.63;95.72
75996;BME280;64681;49.738;9.004;2024-01-30T01:27:01;100883.34;;;0.70;95.02
75996;BME280;64681;49.738;9.004;2024-01-30T01:29:27;100889.28;;;0.65;94.23
75996;BME280;64681;49.738;9.004;2024-01-30T01:31:56;100881.25;;;0.48;94.79
75996;BME280;64681;49.738;9.004;2024-01-30T01:34:22;100884.00;;;0.53;94.67
75996;BME280;64681;49.738;9.004;2024-01-30T01:36:49;100885.59;;;0.54;94.60
75996;BME280;64681;49.738;9.004;2024-01-30T01:39:15;100882.69;;;0.44;94.24
75996;BME280;64681;49.738;9.004;2024-01-30T01:41:41;100885.81;;;0.22;97.01
75996;BME280;64681;49.738;9.004;2024-01-30T01:44:07;100889.63;;;0.26;96.49
75996;BME280;64681;49.738;9.004;2024-01-30T01:46:33;100893.97;;;0.33;96.57
75996;BME280;64681;49.738;9.004;2024-01-30T01:49:02;100879.50;;;0.42;95.43
75996;BME280;64681;49.738;9.004;2024-01-30T01:51:29;100879.03;;;0.45;94.79
75996;BME280;64681;49.738;9.004;2024-01-30T01:53:57;100878.78;;;0.35;95.53
75996;BME280;64681;49.738;9.004;2024-01-30T01:56:24;100880.19;;;0.37;95.81
75996;BME280;64681;49.738;9.004;2024-01-30T01:58:54;100872.81;;;0.27;95.49
75996;BME280;64681;49.738;9.004;2024-01-30T02:01:21;100881.41;;;0.35;95.02
75996;BME280;64681;49.738;9.004;2024-01-30T02:03:48;100878.13;;;-0.10;97.26
75996;BME280;64681;49.738;9.004;2024-01-30T02:06:14;100875.38;;;0.04;96.56
75996;BME280;64681;49.738;9.004;2024-01-30T02:08:40;100872.63;;;0.10;96.27
75996;BME280;64681;49.738;9.004;2024-01-30T02:11:06;100878.59;;;0.18;95.41
75996;BME280;64681;49.738;9.004;2024-01-30T02:13:32;100867.75;;;0.14;95.50
75996;BME280;64681;49.738;9.004;2024-01-30T02:15:57;100862.94;;;0.11;95.13
75996;BME280;64681;49.738;9.004;2024-01-30T02:18:23;100875.03;;;0.12;95.39
75996;BME280;64681;49.738;9.004;2024-01-30T02:20:49;100864.75;;;0.10;95.30
75996;BME280;64681;49.738;9.004;2024-01-30T02:23:19;100874.13;;;0.06;95.17
75996;BME280;64681;49.738;9.004;2024-01-30T02:25:45;100869.44;;;0.08;95.32
75996;BME280;64681;49.738;9.004;2024-01-30T02:28:14;100878.47;;;0.12;95.01
75996;BME280;64681;49.738;9.004;2024-01-30T02:30:40;100875.19;;;0.17;94.52
75996;BME280;64681;49.738;9.004;2024-01-30T02:33:06;100874.47;;;0.10;94.24
75996;BME280;64681;49.738;9.004;2024-01-30T02:35:31;100870.97;;;-0.03;95.26
75996;BME280;64681;49.738;9.004;2024-01-30T02:37:57;100874.34;;;-0.14;96.39
75996;BME280;64681;49.738;9.004;2024-01-30T02:40:23;100868.00;;;-0.06;95.78
75996;BME280;64681;49.738;9.004;2024-01-30T02:42:48;100875.44;;;-0.03;95.15
75996;BME280;64681;49.738;9.004;2024-01-30T02:45:14;100870.53;;;0.01;95.40
75996;BME280;64681;49.738;9.004;2024-01-30T02:47:40;100869.75;;;0.00;94.72
75996;BME280;64681;49.738;9.004;2024-01-30T02:50:06;100870.31;;;0.02;94.58
75996;BME280;64681;49.738;9.004;2024-01-30T02:52:32;100870.84;;;-0.08;95.05
75996;BME280;64681;49.738;9.004;2024-01-30T02:54:57;100875.00;;;0.00;95.00
75996;BME280;64681;49.738;9.004;2024-01-30T02:57:23;100861.28;;;-0.02;94.43
75996;BME280;64681;49.738;9.004;2024-01-30T02:59:49;100868.59;;;-0.41;98.00
75996;BME280;64681;49.738;9.004;2024-01-30T03:02:14;100865.16;;;-0.23;97.13
75996;BME280;64681;49.738;9.004;2024-01-30T03:04:43;100855.31;;;-0.09;95.87
75996;BME280;64681;49.738;9.004;2024-01-30T03:07:09;100865.91;;;-0.35;98.47
75996;BME280;64681;49.738;9.004;2024-01-30T03:09:36;100862.69;;;-0.18;97.64
75996;BME280;64681;49.738;9.004;2024-01-30T03:12:03;100857.22;;;-0.17;97.54
75996;BME280;64681;49.738;9.004;2024-01-30T03:14:30;100859.69;;;-0.22;99.23
75996;BME280;64681;49.738;9.004;2024-01-30T03:16:57;100857.41;;;0.01;97.11
75996;BME280;64681;49.738;9.004;2024-01-30T03:19:23;100856.75;;;0.05;96.15
75996;BME280;64681;49.738;9.004;2024-01-30T03:21:48;100857.91;;;0.09;95.33
75996;BME280;64681;49.738;9.004;2024-01-30T03:24:14;100861.19;;;0.05;94.56
75996;BME280;64681;49.738;9.004;2024-01-30T03:26:39;100861.94;;;-0.07;94.81
75996;BME280;64681;49.738;9.004;2024-01-30T03:29:05;100860.28;;;-0.20;95.46
75996;BME280;64681;49.738;9.004;2024-01-30T03:31:30;100863.84;;;-0.14;94.87
75996;BME280;64681;49.738;9.004;2024-01-30T03:33:56;100874.13;;;-0.12;95.06
75996;BME280;64681;49.738;9.004;2024-01-30T03:36:21;100873.03;;;-0.05;94.50
75996;BME280;64681;49.738;9.004;2024-01-30T03:38:47;100859.75;;;-0.10;94.55
75996;BME280;64681;49.738;9.004;2024-01-30T03:41:13;100864.28;;;-0.17;94.82
75996;BME280;64681;49.738;9.004;2024-01-30T03:43:38;100860.88;;;-0.18;94.62
75996;BME280;64681;49.738;9.004;2024-01-30T03:46:04;100854.31;;;-0.27;95.49
75996;BME280;64681;49.738;9.004;2024-01-30T03:48:30;100864.09;;;-0.15;94.88
75996;BME280;64681;49.738;9.004;2024-01-30T03:50:55;100865.25;;;-0.30;95.59
75996;BME280;64681;49.738;9.004;2024-01-30T03:53:21;100865.31;;;-0.18;94.48
75996;BME280;64681;49.738;9.004;2024-01-30T03:55:47;100866.41;;;-0.26;94.81
75996;BME280;64681;49.738;9.004;2024-01-30T03:58:12;100868.53;;;-0.16;94.39
75996;BME280;64681;49.738;9.004;2024-01-30T04:00:38;100867.72;;;-0.17;93.78
75996;BME280;64681;49.738;9.004;2024-01-30T04:03:04;100871.16;;;-0.16;93.88
75996;BME280;64681;49.738;9.004;2024-01-30T04:05:29;100869.19;;;-0.21;94.12
75996;BME280;64681;49.738;9.004;2024-01-30T04:07:55;100873.41;;;-0.20;93.68
75996;BME280;64681;49.738;9.004;2024-01-30T04:10:20;100866.41;;;-0.26;94.49
75996;BME280;64681;49.738;9.004;2024-01-30T04:12:46;100858.44;;;-0.19;93.96
75996;BME280;64681;49.738;9.004;2024-01-30T04:15:12;100858.84;;;-0.34;94.87
75996;BME280;64681;49.738;9.004;2024-01-30T04:17:39;100862.53;;;-0.23;94.24
75996;BME280;64681;49.738;9.004;2024-01-30T04:20:05;100857.53;;;-0.43;94.97
75996;BME280;64681;49.738;9.004;2024-01-30T04:22:31;100857.88;;;-0.40;95.20
75996;BME280;64681;49.738;9.004;2024-01-30T04:24:57;100853.28;;;-0.44;95.36
75996;BME280;64681;49.738;9.004;2024-01-30T04:27:22;100850.88;;;-0.46;96.09
75996;BME280;64681;49.738;9.004;2024-01-30T04:29:48;100846.59;;;-0.40;95.79
75996;BME280;64681;49.738;9.004;2024-01-30T04:32:14;100849.00;;;-0.39;95.21
75996;BME280;64681;49.738;9.004;2024-01-30T04:34:39;100846.97;;;-0.37;94.49
75996;BME280;64681;49.738;9.004;2024-01-30T04:37:05;100854.31;;;-0.45;95.50
75996;BME280;64681;49.738;9.004;2024-01-30T04:39:32;100848.84;;;-0.44;96.14
75996;BME280;64681;49.738;9.004;2024-01-30T04:41:58;100858.19;;;-0.29;95.90
75996;BME280;64681;49.738;9.004;2024-01-30T04:44:24;100852.81;;;-0.35;95.76
75996;BME280;64681;49.738;9.004;2024-01-30T04:46:50;100854.00;;;-0.37;95.63
75996;BME280;64681;49.738;9.004;2024-01-30T04:49:15;100856.16;;;-0.27;95.60
75996;BME280;64681;49.738;9.004;2024-01-30T04:51:41;100856.22;;;-0.34;95.44
75996;BME280;64681;49.738;9.004;2024-01-30T04:54:06;100858.03;;;-0.35;95.78
75996;BME280;64681;49.738;9.004;2024-01-30T04:56:32;100861.97;;;-0.25;94.45
75996;BME280;64681;49.738;9.004;2024-01-30T04:58:57;100863.56;;;-0.24;94.42
75996;BME280;64681;49.738;9.004;2024-01-30T05:01:23;100863.13;;;-0.40;94.51
75996;BME280;64681;49.738;9.004;2024-01-30T05:03:48;100861.38;;;-0.46;95.46
75996;BME280;64681;49.738;9.004;2024-01-30T05:06:24;100864.69;;;-0.32;94.77
75996;BME280;64681;49.738;9.004;2024-01-30T05:08:49;100863.38;;;-0.41;94.52
75996;BME280;64681;49.738;9.004;2024-01-30T05:11:15;100870.38;;;-0.54;95.38
75996;BME280;64681;49.738;9.004;2024-01-30T05:13:40;100867.44;;;-0.45;95.12
75996;BME280;64681;49.738;9.004;2024-01-30T05:16:06;100868.53;;;-0.35;94.44
75996;BME280;64681;49.738;9.004;2024-01-30T05:18:32;100875.28;;;-0.45;94.77
75996;BME280;64681;49.738;9.004;2024-01-30T05:20:57;100881.59;;;-0.46;94.67
75996;BME280;64681;49.738;9.004;2024-01-30T05:23:23;100876.63;;;-0.36;94.38
75996;BME280;64681;49.738;9.004;2024-01-30T05:25:48;100879.53;;;-0.44;94.36
75996;BME280;64681;49.738;9.004;2024-01-30T05:28:14;100883.09;;;-0.39;94.29
75996;BME280;64681;49.738;9.004;2024-01-30T05:30:39;100884.72;;;-0.38;93.85
75996;BME280;64681;49.738;9.004;2024-01-30T05:33:05;100875.16;;;-0.51;94.57
75996;BME280;64681;49.738;9.004;2024-01-30T05:35:30;100874.88;;;-0.42;93.82
75996;BME280;64681;49.738;9.004;2024-01-30T05:37:56;100877.50;;;-0.42;93.78
75996;BME280;64681;49.738;9.004;2024-01-30T05:40:22;100873.34;;;-0.50;94.36
75996;BME280;64681;49.738;9.004;2024-01-30T05:42:47;100881.78;;;-0.48;94.74
75996;BME280;64681;49.738;9.004;2024-01-30T05:45:13;100873.56;;;-0.52;94.34
75996;BME280;64681;49.738;9.004;2024-01-30T05:47:39;100876.41;;;-0.53;94.74
75996;BME280;64681;49.738;9.004;2024-01-30T05:50:05;100871.22;;;-0.60;95.37
75996;BME280;64681;49.738;9.004;2024-01-30T05:52:31;100880.19;;;-0.49;95.03
75996;BME280;64681;49.738;9.004;2024-01-30T05:54:56;100882.28;;;-0.58;95.47
75996;BME280;64681;49.738;9.004;2024-01-30T05:57:22;100878.78;;;-0.52;94.73
75996;BME280;64681;49.738;9.004;2024-01-30T05:59:47;100887.41;;;-0.44;94.29
75996;BME280;64681;49.738;9.004;2024-01-30T06:02:13;100880.41;;;-0.51;94.49
75996;BME280;64681;49.738;9.004;2024-01-30T06:04:39;100887.25;;;-0.50;94.27
75996;BME280;64681;49.738;9.004;2024-01-30T06:07:05;100886.47;;;-0.50;95.09
75996;BME280;64681;49.738;9.004;2024-01-30T06:09:32;100885.59;;;-0.44;94.41
75996;BME280;64681;49.738;9.004;2024-01-30T06:11:58;100880.13;;;-0.42;94.53
75996;BME280;64681;49.738;9.004;2024-01-30T06:14:23;100881.13;;;-0.43;94.54
75996;BME280;64681;49.738;9.004;2024-01-30T06:16:49;100884.13;;;-0.40;94.58
75996;BME280;64681;49.738;9.004;2024-01-30T06:19:15;100886.53;;;-0.38;94.42
75996;BME280;64681;49.738;9.004;2024-01-30T06:21:41;100892.00;;;-0.40;94.80
75996;BME280;64681;49.738;9.004;2024-01-30T06:24:06;100887.31;;;-0.56;96.19
75996;BME280;64681;49.738;9.004;2024-01-30T06:26:32;100890.09;;;-0.33;95.01
75996;BME280;64681;49.738;9.004;2024-01-30T06:28:58;100886.25;;;-0.30;94.55
75996;BME280;64681;49.738;9.004;2024-01-30T06:31:23;100891.47;;;-0.30;94.61
75996;BME280;64681;49.738;9.004;2024-01-30T06:33:51;100882.81;;;-0.30;94.24
75996;BME280;64681;49.738;9.004;2024-01-30T06:36:17;100877.94;;;-0.27;94.28
75996;BME280;64681;49.738;9.004;2024-01-30T06:38:42;100870.34;;;-0.35;93.96
75996;BME280;64681;49.738;9.004;2024-01-30T06:41:08;100883.41;;;-0.28;94.28
75996;BME280;64681;49.738;9.004;2024-01-30T06:43:33;100883.06;;;-0.32;94.52
75996;BME280;64681;49.738;9.004;2024-01-30T06:45:59;100892.31;;;-0.29;94.53
75996;BME280;64681;49.738;9.004;2024-01-30T06:48:25;100898.56;;;-0.30;94.04
75996;BME280;64681;49.738;9.004;2024-01-30T06:50:53;100890.41;;;-0.59;95.56
75996;BME280;64681;49.738;9.004;2024-01-30T06:53:19;100882.97;;;-0.44;95.20
75996;BME280;64681;49.738;9.004;2024-01-30T06:55:45;100893.19;;;-0.36;95.37
75996;BME280;64681;49.738;9.004;2024-01-30T06:58:11;100880.44;;;-0.32;94.66
75996;BME280;64681;49.738;9.004;2024-01-30T07:00:37;100885.31;;;-0.36;94.51
75996;BME280;64681;49.738;9.004;2024-01-30T07:03:02;100883.84;;;-0.32;93.99
75996;BME280;64681;49.738;9.004;2024-01-30T07:05:28;100886.97;;;-0.23;93.73
75996;BME280;64681;49.738;9.004;2024-01-30T07:07:53;100886.81;;;-0.28;93.29
75996;BME280;64681;49.738;9.004;2024-01-30T07:10:19;100888.06;;;-0.30;94.11
75996;BME280;64681;49.738;9.004;2024-01-30T07:12:44;100888.44;;;-0.27;94.19
75996;BME280;64681;49.738;9.004;2024-01-30T07:15:10;100884.41;;;-0.48;94.96
75996;BME280;64681;49.738;9.004;2024-01-30T07:17:36;100881.81;;;-0.29;94.86
75996;BME280;64681;49.738;9.004;2024-01-30T07:20:02;100880.91;;;-0.23;94.46
75996;BME280;64681;49.738;9.004;2024-01-30T07:22:31;100876.63;;;-0.18;94.59
75996;BME280;64681;49.738;9.004;2024-01-30T07:24:57;100870.91;;;-0.14;94.45
75996;BME280;64681;49.738;9.004;2024-01-30T07:27:22;100880.78;;;-0.28;94.80
75996;BME280;64681;49.738;9.004;2024-01-30T07:29:48;100883.63;;;-0.30;95.55
75996;BME280;64681;49.738;9.004;2024-01-30T07:32:14;100883.38;;;-0.10;95.29
75996;BME280;64681;49.738;9.004;2024-01-30T07:34:39;100879.00;;;0.03;95.72
75996;BME280;64681;49.738;9.004;2024-01-30T07:37:05;100888.44;;;0.22;94.82
75996;BME280;64681;49.738;9.004;2024-01-30T07:39:33;100890.66;;;0.25;94.83
75996;BME280;64681;49.738;9.004;2024-01-30T07:41:59;100885.06;;;0.34;95.06
75996;BME280;64681;49.738;9.004;2024-01-30T07:44:25;100885.63;;;0.36;95.03
75996;BME280;64681;49.738;9.004;2024-01-30T07:46:51;100887.41;;;0.54;94.86
75996;BME280;64681;49.738;9.004;2024-01-30T07:49:16;100886.22;;;0.68;94.41
75996;BME280;64681;49.738;9.004;2024-01-30T07:51:42;100885.66;;;0.78;94.56
75996;BME280;64681;49.738;9.004;2024-01-30T07:54:08;100883.34;;;0.70;92.97
75996;BME280;64681;49.738;9.004;2024-01-30T07:56:33;100893.16;;;0.62;94.58
75996;BME280;64681;49.738;9.004;2024-01-30T07:58:59;100891.84;;;0.84;95.22
75996;BME280;64681;49.738;9.004;2024-01-30T08:01:25;100885.66;;;0.78;95.04
75996;BME280;64681;49.738;9.004;2024-01-30T08:03:50;100893.00;;;1.00;95.94
75996;BME280;64681;49.738;9.004;2024-01-30T08:06:16;100894.38;;;1.26;95.21
75996;BME280;64681;49.738;9.004;2024-01-30T08:08:42;100887.97;;;1.34;94.51
75996;BME280;64681;49.738;9.004;2024-01-30T08:11:08;100893.44;;;1.56;94.54
75996;BME280;64681;49.738;9.004;2024-01-30T08:13:33;100887.69;;;1.71;93.42
75996;BME280;64681;49.738;9.004;2024-01-30T08:15:59;100894.88;;;1.87;92.86
75996;BME280;64681;49.738;9.004;2024-01-30T08:18:24;100893.13;;;1.93;92.58
75996;BME280;64681;49.738;9.004;2024-01-30T08:20:50;100892.81;;;1.78;92.99
75996;BME280;64681;49.738;9.004;2024-01-30T08:23:15;100888.78;;;1.99;93.48
75996;BME280;64681;49.738;9.004;2024-01-30T08:25:41;100893.31;;;2.15;93.36
75996;BME280;64681;49.738;9.004;2024-01-30T08:28:06;100893.34;;;2.32;93.35
75996;BME280;64681;49.738;9.004;2024-01-30T08:30:32;100897.84;;;2.49;92.48
75996;BME280;64681;49.738;9.004;2024-01-30T08:32:58;100903.00;;;2.56;92.32
75996;BME280;64681;49.738;9.004;2024-01-30T08:35:23;100900.44;;;2.61;92.61
75996;BME280;64681;49.738;9.004;2024-01-30T08:37:49;100905.31;;;2.69;92.54
75996;BME280;64681;49.738;9.004;2024-01-30T08:40:14;100902.19;;;2.72;92.51
75996;BME280;64681;49.738;9.004;2024-01-30T08:42:40;100899.34;;;2.74;92.71
75996;BME280;64681;49.738;9.004;2024-01-30T08:45:06;100901.97;;;2.91;93.12
75996;BME280;64681;49.738;9.004;2024-01-30T08:47:32;100904.78;;;3.01;92.61
75996;BME280;64681;49.738;9.004;2024-01-30T08:49:58;100901.50;;;3.11;92.13
75996;BME280;64681;49.738;9.004;2024-01-30T08:52:24;100911.63;;;3.19;92.18
75996;BME280;64681;49.738;9.004;2024-01-30T08:54:50;100907.47;;;3.23;92.00
75996;BME280;64681;49.738;9.004;2024-01-30T08:57:15;100906.28;;;3.31;92.58
75996;BME280;64681;49.738;9.004;2024-01-30T08:59:41;100908.50;;;3.39;92.59
75996;BME280;64681;49.738;9.004;2024-01-30T09:02:09;100904.63;;;3.47;92.88
75996;BME280;64681;49.738;9.004;2024-01-30T09:04:35;100906.38;;;3.58;92.14
75996;BME280;64681;49.738;9.004;2024-01-30T09:07:01;100904.03;;;3.62;92.02
75996;BME280;64681;49.738;9.004;2024-01-30T09:09:26;100910.22;;;3.51;91.66
75996;BME280;64681;49.738;9.004;2024-01-30T09:11:52;100904.47;;;3.76;93.87
75996;BME280;64681;49.738;9.004;2024-01-30T09:14:17;100901.91;;;3.81;93.83
75996;BME280;64681;49.738;9.004;2024-01-30T09:16:43;100905.72;;;3.90;92.73
75996;BME280;64681;49.738;9.004;2024-01-30T09:19:08;100902.75;;;4.09;93.66
75996;BME280;64681;49.738;9.004;2024-01-30T09:21:34;100907.56;;;4.12;93.58
75996;BME280;64681;49.738;9.004;2024-01-30T09:24:03;100899.63;;;4.39;93.38
75996;BME280;64681;49.738;9.004;2024-01-30T09:26:31;100905.53;;;4.47;93.88
75996;BME280;64681;49.738;9.004;2024-01-30T09:28:57;100910.72;;;4.69;94.46
75996;BME280;64681;49.738;9.004;2024-01-30T09:31:22;100910.06;;;4.84;94.87
75996;BME280;64681;49.738;9.004;2024-01-30T09:33:48;100907.41;;;4.79;90.68
75996;BME280;64681;49.738;9.004;2024-01-30T09:36:14;100912.81;;;4.94;94.12
75996;BME280;64681;49.738;9.004;2024-01-30T09:38:45;100907.72;;;5.25;94.49
75996;BME280;64681;49.738;9.004;2024-01-30T09:41:11;100913.06;;;5.30;91.33
75996;BME280;64681;49.738;9.004;2024-01-30T09:43:38;100915.88;;;5.61;94.74
75996;BME280;64681;49.738;9.004;2024-01-30T09:46:05;100908.00;;;5.82;94.95
75996;BME280;64681;49.738;9.004;2024-01-30T09:48:34;100917.06;;;5.91;94.12
75996;BME280;64681;49.738;9.004;2024-01-30T09:51:00;100921.69;;;6.11;94.71
75996;BME280;64681;49.738;9.004;2024-01-30T09:53:26;100917.69;;;6.09;92.38
75996;BME280;64681;49.738;9.004;2024-01-30T09:55:52;100920.41;;;6.34;93.14
75996;BME280;64681;49.738;9.004;2024-01-30T09:58:18;100911.41;;;6.46;92.56
75996;BME280;64681;49.738;9.004;2024-01-30T10:00:43;100919.66;;;6.49;91.00
75996;BME280;64681;49.738;9.004;2024-01-30T10:03:09;100908.25;;;6.75;92.27
75996;BME280;64681;49.738;9.004;2024-01-30T10:05:36;100909.59;;;6.88;91.10
75996;BME280;64681;49.738;9.004;2024-01-30T10:08:08;100912.47;;;6.55;83.45
75996;BME280;64681;49.738;9.004;2024-01-30T10:10:34;100911.34;;;6.20;87.94
75996;BME280;64681;49.738;9.004;2024-01-30T10:13:01;100907.19;;;6.76;88.67
75996;BME280;64681;49.738;9.004;2024-01-30T10:15:28;100910.63;;;7.02;88.14
75996;BME280;64681;49.738;9.004;2024-01-30T10:17:53;100903.97;;;7.20;88.39
75996;BME280;64681;49.738;9.004;2024-01-30T10:20:19;100907.19;;;7.07;81.10
75996;BME280;64681;49.738;9.004;2024-01-30T10:22:49;100904.50;;;7.02;83.43
75996;BME280;64681;49.738;9.004;2024-01-30T10:25:15;100895.41;;;7.44;85.57
75996;BME280;64681;49.738;9.004;2024-01-30T10:27:40;100901.25;;;7.51;81.37
75996;BME280;64681;49.738;9.004;2024-01-30T10:30:07;100904.34;;;7.74;84.05
75996;BME280;64681;49.738;9.004;2024-01-30T10:32:32;100901.16;;;7.77;81.79
75996;BME280;64681;49.738;9.004;2024-01-30T10:34:58;100887.72;;;8.03;82.69
75996;BME280;64681;49.738;9.004;2024-01-30T10:37:25;100885.94;;;8.33;81.36
75996;BME280;64681;49.738;9.004;2024-01-30T10:39:53;100898.59;;;8.57;80.08
75996;BME280;64681;49.738;9.004;2024-01-30T10:42:26;100886.25;;;8.71;78.81
75996;BME280;64681;49.738;9.004;2024-01-30T10:45:10;100893.25;;;8.96;79.20
75996;BME280;64681;49.738;9.004;2024-01-30T10:47:53;100885.38;;;9.10;77.92
75996;BME280;64681;49.738;9.004;2024-01-30T10:50:24;100887.88;;;9.26;77.56
75996;BME280;64681;49.738;9.004;2024-01-30T10:52:50;100887.78;;;9.36;76.31
75996;BME280;64681;49.738;9.004;2024-01-30T10:55:18;100884.59;;;9.34;74.22
75996;BME280;64681;49.738;9.004;2024-01-30T10:57:44;100889.19;;;9.53;74.02
75996;BME280;64681;49.738;9.004;2024-01-30T11:00:14;100886.50;;;9.77;74.86
75996;BME280;64681;49.738;9.004;2024-01-30T11:02:45;100888.78;;;9.64;71.90
75996;BME280;64681;49.738;9.004;2024-01-30T11:05:13;100887.91;;;9.93;73.18
75996;BME280;64681;49.738;9.004;2024-01-30T11:07:41;100885.88;;;10.04;72.08
75996;BME280;64681;49.738;9.004;2024-01-30T11:10:07;100883.94;;;10.10;72.11
75996;BME280;64681;49.738;9.004;2024-01-30T11:12:39;100885.22;;;10.32;71.53
75996;BME280;64681;49.738;9.004;2024-01-30T11:15:08;100880.19;;;10.30;68.77
75996;BME280;64681;49.738;9.004;2024-01-30T11:22:47;100880.34;;;10.20;70.58
75996;BME280;64681;49.738;9.004;2024-01-30T11:25:17;100885.88;;;9.37;72.99
75996;BME280;64681;49.738;9.004;2024-01-30T11:27:45;100881.47;;;9.94;70.71
75996;BME280;64681;49.738;9.004;2024-01-30T11:30:31;100878.47;;;9.58;72.16
75996;BME280;64681;49.738;9.004;2024-01-30T11:35:36;100874.97;;;9.81;72.63
75996;BME280;64681;49.738;9.004;2024-01-30T11:38:03;100860.50;;;10.07;70.29
75996;BME280;64681;49.738;9.004;2024-01-30T11:40:31;100859.91;;;10.48;68.41
75996;BME280;64681;49.738;9.004;2024-01-30T11:42:59;100848.25;;;10.91;68.34
75996;BME280;64681;49.738;9.004;2024-01-30T11:45:26;100851.81;;;11.14;67.46
75996;BME280;64681;49.738;9.004;2024-01-30T11:47:53;100840.25;;;11.19;67.37
75996;BME280;64681;49.738;9.004;2024-01-30T11:50:19;100844.50;;;11.34;68.05
75996;BME280;64681;49.738;9.004;2024-01-30T11:52:45;100845.28;;;11.34;69.02
75996;BME280;64681;49.738;9.004;2024-01-30T11:55:10;100847.16;;;11.48;68.81
75996;BME280;64681;49.738;9.004;2024-01-30T11:57:37;100851.03;;;11.28;70.47
75996;BME280;64681;49.738;9.004;2024-01-30T12:00:04;100846.88;;;10.93;69.39
75996;BME280;64681;49.738;9.004;2024-01-30T12:02:39;100845.13;;;10.70;70.52
75996;BME280;64681;49.738;9.004;2024-01-30T12:05:07;100844.56;;;10.21;70.98
75996;BME280;64681;49.738;9.004;2024-01-30T12:07:33;100834.22;;;9.95;73.33
75996;BME280;64681;49.738;9.004;2024-01-30T12:09:59;100834.22;;;9.95;74.92
75996;BME280;64681;49.738;9.004;2024-01-30T12:12:26;100818.19;;;10.33;71.21
75996;BME280;64681;49.738;9.004;2024-01-30T12:14:53;100822.69;;;10.38;70.35
75996;BME280;64681;49.738;9.004;2024-01-30T12:17:33;100826.00;;;10.10;67.87
75996;BME280;64681;49.738;9.004;2024-01-30T12:20:10;100817.47;;;10.47;67.05
75996;BME280;64681;49.738;9.004;2024-01-30T12:22:37;100817.81;;;10.59;65.87
75996;BME280;64681;49.738;9.004;2024-01-30T12:25:08;100812.28;;;10.83;65.38
75996;BME280;64681;49.738;9.004;2024-01-30T12:27:35;100805.50;;;11.19;63.27
75996;BME280;64681;49.738;9.004;2024-01-30T12:30:01;100804.75;;;11.55;63.98
75996;BME280;64681;49.738;9.004;2024-01-30T12:32:28;100799.34;;;11.32;63.88
75996;BME280;64681;49.738;9.004;2024-01-30T12:34:56;100802.25;;;11.72;62.46
75996;BME280;64681;49.738;9.004;2024-01-30T12:37:24;100791.59;;;11.45;61.00
75996;BME280;64681;49.738;9.004;2024-01-30T12:39:52;100787.06;;;11.17;62.66
75996;BME280;64681;49.738;9.004;2024-01-30T12:42:19;100784.50;;;11.26;62.72
75996;BME280;64681;49.738;9.004;2024-01-30T12:44:47;100780.09;;;11.44;61.31
75996;BME280;64681;49.738;9.004;2024-01-30T12:47:13;100788.81;;;11.50;61.32
75996;BME280;64681;49.738;9.004;2024-01-30T12:49:38;100782.06;;;11.89;59.86
75996;BME280;64681;49.738;9.004;2024-01-30T12:52:04;100787.28;;;12.31;58.65
75996;BME280;64681;49.738;9.004;2024-01-30T12:54:30;100801.16;;;12.33;59.27
75996;BME280;64681;49.738;9.004;2024-01-30T12:56:55;100799.31;;;12.42;59.35
75996;BME280;64681;49.738;9.004;2024-01-30T12:59:21;100806.25;;;12.43;59.23